sensor_id;sensor_type;location;lat;lon;timestamp;pressure;altitude;pressure_sealevel;temperature;humidity
18569;BME280;14780;48.316;-1.050;2022-08-18T00:00:31;98881.59;;;25.49;51.20
18569;BME280;14780;48.316;-1.050;2022-08-18T00:03:16;98875.59;;;25.47;51.19
18569;BME280;14780;48.316;-1.050;2022-08-18T00:06:03;98871.19;;;25.46;51.10
18569;BME280;14780;48.316;-1.050;2022-08-18T00:08:47;98876.66;;;25.46;51.38
18569;BME280;14780;48.316;-1.050;2022-08-18T00:11:36;98866.81;;;25.45;51.28
18569;BME280;14780;48.316;-1.050;2022-08-18T00:14:22;98866.03;;;25.44;51.40
18569;BME280;14780;48.316;-1.050;2022-08-18T00:17:07;98865.78;;;25.41;51.31
18569;BME280;14780;48.316;-1.050;2022-08-18T00:19:52;98876.72;;;25.41;51.36
18569;BME280;14780;48.316;-1.050;2022-08-18T00:22:37;98877.84;;;25.40;51.39
18569;BME280;14780;48.316;-1.050;2022-08-18T00:25:23;98877.00;;;25.39;51.24
18569;BME280;14780;48.316;-1.050;2022-08-18T00:28:08;98871.00;;;25.37;51.26
18569;BME280;14780;48.316;-1.050;2022-08-18T00:30:53;98885.81;;;25.36;51.27
18569;BME280;14780;48.316;-1.050;2022-08-18T00:33:38;98888.56;;;25.36;51.34
18569;BME280;14780;48.316;-1.050;2022-08-18T00:36:23;98892.38;;;25.35;51.50
18569;BME280;14780;48.316;-1.050;2022-08-18T00:39:07;98892.69;;;25.34;51.44
18569;BME280;14780;48.316;-1.050;2022-08-18T00:41:52;98897.31;;;25.33;51.41
18569;BME280;14780;48.316;-1.050;2022-08-18T00:44:36;98901.16;;;25.32;51.36
18569;BME280;14780;48.316;-1.050;2022-08-18T00:47:21;98897.91;;;25.30;51.44
18569;BME280;14780;48.316;-1.050;2022-08-18T00:50:08;98899.03;;;25.29;51.38
18569;BME280;14780;48.316;-1.050;2022-08-18T00:53:01;98901.16;;;25.32;51.40
18569;BME280;14780;48.316;-1.050;2022-08-18T00:55:47;98902.03;;;25.28;51.35
18569;BME280;14780;48.316;-1.050;2022-08-18T00:58:46;98898.44;;;25.32;51.42
18569;BME280;14780;48.316;-1.050;2022-08-18T01:01:32;98887.81;;;25.26;51.55
18569;BME280;14780;48.316;-1.050;2022-08-18T01:04:24;98886.16;;;25.25;51.55
18569;BME280;14780;48.316;-1.050;2022-08-18T01:07:32;98893.00;;;25.27;51.61
18569;BME280;14780;48.316;-1.050;2022-08-18T01:10:22;98884.53;;;25.24;51.54
18569;BME280;14780;48.316;-1.050;2022-08-18T01:13:08;98885.06;;;25.21;51.73
18569;BME280;14780;48.316;-1.050;2022-08-18T01:15:53;98886.97;;;25.20;51.54
18569;BME280;14780;48.316;-1.050;2022-08-18T01:18:38;98894.41;;;25.20;51.78
18569;BME280;14780;48.316;-1.050;2022-08-18T01:21:50;98897.41;;;25.23;51.51
18569;BME280;14780;48.316;-1.050;2022-08-18T01:24:36;98894.69;;;25.18;51.58
18569;BME280;14780;48.316;-1.050;2022-08-18T01:27:53;98901.25;;;25.17;51.74
18569;BME280;14780;48.316;-1.050;2022-08-18T01:30:49;98907.81;;;25.21;51.42
18569;BME280;14780;48.316;-1.050;2022-08-18T01:33:37;98899.63;;;25.16;51.64
18569;BME280;14780;48.316;-1.050;2022-08-18T01:36:23;98899.09;;;25.14;51.63
18569;BME280;14780;48.316;-1.050;2022-08-18T01:39:10;98899.09;;;25.14;51.64
18569;BME280;14780;48.316;-1.050;2022-08-18T01:41:55;98898.53;;;25.12;51.82
18569;BME280;14780;48.316;-1.050;2022-08-18T01:44:40;98902.91;;;25.13;51.80
18569;BME280;14780;48.316;-1.050;2022-08-18T01:47:25;98890.34;;;25.12;51.70
18569;BME280;14780;48.316;-1.050;2022-08-18T01:50:10;98903.50;;;25.10;51.74
18569;BME280;14780;48.316;-1.050;2022-08-18T01:52:57;98909.81;;;25.11;51.66
18569;BME280;14780;48.316;-1.050;2022-08-18T01:55:43;98915.28;;;25.11;51.91
18569;BME280;14780;48.316;-1.050;2022-08-18T01:58:28;98915.28;;;25.11;51.96
18569;BME280;14780;48.316;-1.050;2022-08-18T02:01:16;98923.50;;;25.11;51.80
18569;BME280;14780;48.316;-1.050;2022-08-18T02:04:01;98916.66;;;25.08;51.78
18569;BME280;14780;48.316;-1.050;2022-08-18T02:06:46;98916.66;;;25.08;51.88
18569;BME280;14780;48.316;-1.050;2022-08-18T02:09:31;98916.09;;;25.06;51.88
18569;BME280;14780;48.316;-1.050;2022-08-18T02:12:16;98914.19;;;25.07;51.82
18569;BME280;14780;48.316;-1.050;2022-08-18T02:15:02;98923.25;;;25.07;51.85
18569;BME280;14780;48.316;-1.050;2022-08-18T02:17:47;98924.31;;;25.06;51.79
18569;BME280;14780;48.316;-1.050;2022-08-18T02:20:32;98932.00;;;25.04;51.84
18569;BME280;14780;48.316;-1.050;2022-08-18T02:23:16;98933.63;;;25.05;51.97
18569;BME280;14780;48.316;-1.050;2022-08-18T02:26:09;98927.63;;;25.08;51.80
18569;BME280;14780;48.316;-1.050;2022-08-18T02:28:55;98922.16;;;25.03;51.86
18569;BME280;14780;48.316;-1.050;2022-08-18T02:31:40;98928.75;;;25.02;51.89
18569;BME280;14780;48.316;-1.050;2022-08-18T02:34:24;98932.59;;;25.01;51.87
18569;BME280;14780;48.316;-1.050;2022-08-18T02:37:09;98934.22;;;25.02;51.92
18569;BME280;14780;48.316;-1.050;2022-08-18T02:39:54;98943.53;;;25.01;51.93
18569;BME280;14780;48.316;-1.050;2022-08-18T02:42:40;98930.97;;;25.00;52.00
18569;BME280;14780;48.316;-1.050;2022-08-18T02:45:25;98925.47;;;25.00;51.91
18569;BME280;14780;48.316;-1.050;2022-08-18T02:48:10;98938.59;;;24.98;51.91
18569;BME280;14780;48.316;-1.050;2022-08-18T02:51:20;98947.91;;;25.02;51.94
18569;BME280;14780;48.316;-1.050;2022-08-18T02:54:04;98937.81;;;24.98;51.99
18569;BME280;14780;48.316;-1.050;2022-08-18T02:56:53;98942.44;;;24.97;51.86
18569;BME280;14780;48.316;-1.050;2022-08-18T02:59:39;98944.38;;;24.97;52.05
18569;BME280;14780;48.316;-1.050;2022-08-18T03:02:24;98937.25;;;24.96;51.97
18569;BME280;14780;48.316;-1.050;2022-08-18T03:05:09;98937.25;;;24.96;51.95
18569;BME280;14780;48.316;-1.050;2022-08-18T03:07:53;98939.19;;;24.95;52.09
18569;BME280;14780;48.316;-1.050;2022-08-18T03:10:38;98937.56;;;24.94;51.97
18569;BME280;14780;48.316;-1.050;2022-08-18T03:13:23;98938.66;;;24.93;51.91
18569;BME280;14780;48.316;-1.050;2022-08-18T03:16:09;98930.44;;;24.93;51.97
18569;BME280;14780;48.316;-1.050;2022-08-18T03:18:53;98928.50;;;24.94;51.99
18569;BME280;14780;48.316;-1.050;2022-08-18T03:21:38;98935.09;;;24.93;52.17
18569;BME280;14780;48.316;-1.050;2022-08-18T03:24:23;98933.47;;;24.92;52.13
18569;BME280;14780;48.316;-1.050;2022-08-18T03:27:08;98930.72;;;24.92;52.04
18569;BME280;14780;48.316;-1.050;2022-08-18T03:29:53;98916.19;;;24.91;52.17
18569;BME280;14780;48.316;-1.050;2022-08-18T03:32:38;98914.56;;;24.90;52.07
18569;BME280;14780;48.316;-1.050;2022-08-18T03:35:22;98919.25;;;24.90;52.17
18569;BME280;14780;48.316;-1.050;2022-08-18T03:38:07;98926.63;;;24.89;52.01
18569;BME280;14780;48.316;-1.050;2022-08-18T03:40:52;98925.81;;;24.89;52.04
18569;BME280;14780;48.316;-1.050;2022-08-18T03:43:38;98923.09;;;24.89;52.11
18569;BME280;14780;48.316;-1.050;2022-08-18T03:46:23;98919.78;;;24.87;52.21
18569;BME280;14780;48.316;-1.050;2022-08-18T03:49:09;98919.00;;;24.86;52.06
18569;BME280;14780;48.316;-1.050;2022-08-18T03:51:54;98919.78;;;24.87;52.06
18569;BME280;14780;48.316;-1.050;2022-08-18T03:54:39;98915.69;;;24.84;52.05
18569;BME280;14780;48.316;-1.050;2022-08-18T03:57:24;98911.88;;;24.85;52.09
18569;BME280;14780;48.316;-1.050;2022-08-18T04:00:10;98914.06;;;24.83;52.11
18569;BME280;14780;48.316;-1.050;2022-08-18T04:02:55;98912.44;;;24.82;52.27
18569;BME280;14780;48.316;-1.050;2022-08-18T04:05:40;98906.97;;;24.82;52.15
18569;BME280;14780;48.316;-1.050;2022-08-18T04:08:24;98910.81;;;24.81;52.08
18569;BME280;14780;48.316;-1.050;2022-08-18T04:11:10;98926.13;;;24.82;52.13
18569;BME280;14780;48.316;-1.050;2022-08-18T04:13:56;98917.38;;;24.80;52.12
18569;BME280;14780;48.316;-1.050;2022-08-18T04:16:42;98917.38;;;24.80;52.28
18569;BME280;14780;48.316;-1.050;2022-08-18T04:19:27;98926.69;;;24.79;52.18
18569;BME280;14780;48.316;-1.050;2022-08-18T04:22:11;98916.84;;;24.78;52.27
18569;BME280;14780;48.316;-1.050;2022-08-18T04:24:56;98909.72;;;24.77;52.14
18569;BME280;14780;48.316;-1.050;2022-08-18T04:27:41;98917.94;;;24.77;52.14
18569;BME280;14780;48.316;-1.050;2022-08-18T04:30:27;98918.22;;;24.76;52.34
18569;BME280;14780;48.316;-1.050;2022-08-18T04:33:12;98926.13;;;24.77;52.27
18569;BME280;14780;48.316;-1.050;2022-08-18T04:35:57;98914.66;;;24.75;52.28
18569;BME280;14780;48.316;-1.050;2022-08-18T04:38:42;98922.88;;;24.75;52.32
18569;BME280;14780;48.316;-1.050;2022-08-18T04:41:27;98921.25;;;24.74;52.36
18569;BME280;14780;48.316;-1.050;2022-08-18T04:44:13;98916.34;;;24.71;52.27
18569;BME280;14780;48.316;-1.050;2022-08-18T04:47:01;98927.81;;;24.73;52.22
18569;BME280;14780;48.316;-1.050;2022-08-18T04:49:46;98937.13;;;24.72;52.28
18569;BME280;14780;48.316;-1.050;2022-08-18T04:52:30;98931.94;;;24.71;52.36
18569;BME280;14780;48.316;-1.050;2022-08-18T04:55:34;98936.56;;;24.70;52.37
18569;BME280;14780;48.316;-1.050;2022-08-18T04:58:21;98938.22;;;24.71;52.19
18569;BME280;14780;48.316;-1.050;2022-08-18T05:01:06;98941.25;;;24.70;52.35
18569;BME280;14780;48.316;-1.050;2022-08-18T05:03:55;98940.41;;;24.69;52.31
18569;BME280;14780;48.316;-1.050;2022-08-18T05:06:41;98945.88;;;24.69;52.27
18569;BME280;14780;48.316;-1.050;2022-08-18T05:09:27;98944.25;;;24.68;52.42
18569;BME280;14780;48.316;-1.050;2022-08-18T05:12:13;98951.34;;;24.69;52.43
18569;BME280;14780;48.316;-1.050;2022-08-18T05:14:57;98950.00;;;24.67;52.35
18569;BME280;14780;48.316;-1.050;2022-08-18T05:17:42;98962.88;;;24.66;52.39
18569;BME280;14780;48.316;-1.050;2022-08-18T05:20:28;98965.34;;;24.68;52.37
18569;BME280;14780;48.316;-1.050;2022-08-18T05:23:13;98962.28;;;24.69;52.32
18569;BME280;14780;48.316;-1.050;2022-08-18T05:25:59;98974.88;;;24.70;52.14
18569;BME280;14780;48.316;-1.050;2022-08-18T05:28:46;98981.75;;;24.68;52.18
18569;BME280;14780;48.316;-1.050;2022-08-18T05:31:31;98982.03;;;24.66;52.09
18569;BME280;14780;48.316;-1.050;2022-08-18T05:34:18;98979.56;;;24.65;52.22
18569;BME280;14780;48.316;-1.050;2022-08-18T05:37:32;98986.91;;;24.69;52.13
18569;BME280;14780;48.316;-1.050;2022-08-18T05:40:21;98980.66;;;24.64;52.27
18569;BME280;14780;48.316;-1.050;2022-08-18T05:43:09;98983.66;;;24.62;52.17
18569;BME280;14780;48.316;-1.050;2022-08-18T05:45:54;98986.41;;;24.62;51.95
18569;BME280;14780;48.316;-1.050;2022-08-18T05:48:40;98992.97;;;24.61;52.05
18569;BME280;14780;48.316;-1.050;2022-08-18T05:51:38;98987.75;;;24.65;51.94
18569;BME280;14780;48.316;-1.050;2022-08-18T05:54:26;98999.28;;;24.57;52.15
18569;BME280;14780;48.316;-1.050;2022-08-18T05:57:41;98991.63;;;24.59;52.00
18569;BME280;14780;48.316;-1.050;2022-08-18T06:00:28;98994.34;;;24.54;52.07
18569;BME280;14780;48.316;-1.050;2022-08-18T06:03:18;99001.47;;;24.55;52.03
18569;BME280;14780;48.316;-1.050;2022-08-18T06:06:11;98992.19;;;24.56;52.14
18569;BME280;14780;48.316;-1.050;2022-08-18T06:12:26;99004.50;;;24.58;51.91
18569;BME280;14780;48.316;-1.050;2022-08-18T06:21:53;99018.44;;;24.57;51.92
18569;BME280;14780;48.316;-1.050;2022-08-18T06:27:34;99013.25;;;24.50;52.15
18569;BME280;14780;48.316;-1.050;2022-08-18T06:30:49;99010.50;;;24.50;52.08
18569;BME280;14780;48.316;-1.050;2022-08-18T06:34:00;99017.59;;;24.56;51.87
18569;BME280;14780;48.316;-1.050;2022-08-18T06:37:00;99020.63;;;24.50;51.92
18569;BME280;14780;48.316;-1.050;2022-08-18T06:39:51;99020.34;;;24.46;52.04
18569;BME280;14780;48.316;-1.050;2022-08-18T06:42:36;99017.88;;;24.45;52.02
18569;BME280;14780;48.316;-1.050;2022-08-18T06:45:35;99020.88;;;24.48;52.13
18569;BME280;14780;48.316;-1.050;2022-08-18T06:48:49;99013.78;;;24.47;52.11
18569;BME280;14780;48.316;-1.050;2022-08-18T06:51:32;99022.00;;;24.42;52.19
18569;BME280;14780;48.316;-1.050;2022-08-18T06:57:04;99016.81;;;24.41;52.15
18569;BME280;14780;48.316;-1.050;2022-08-18T06:59:58;99021.72;;;24.44;52.19
18569;BME280;14780;48.316;-1.050;2022-08-18T07:05:33;99020.91;;;24.38;52.43
18569;BME280;14780;48.316;-1.050;2022-08-18T07:08:42;99028.03;;;24.49;52.08
18569;BME280;14780;48.316;-1.050;2022-08-18T07:11:29;99031.03;;;24.43;52.50
18569;BME280;14780;48.316;-1.050;2022-08-18T07:14:22;99031.28;;;24.46;52.30
18569;BME280;14780;48.316;-1.050;2022-08-18T07:17:11;99029.66;;;24.40;52.50
18569;BME280;14780;48.316;-1.050;2022-08-18T07:20:05;99035.13;;;24.40;52.47
18569;BME280;14780;48.316;-1.050;2022-08-18T07:22:54;99046.91;;;24.41;52.57
18569;BME280;14780;48.316;-1.050;2022-08-18T07:25:45;99045.53;;;24.43;52.68
18569;BME280;14780;48.316;-1.050;2022-08-18T07:28:47;99052.06;;;24.47;52.45
18569;BME280;14780;48.316;-1.050;2022-08-18T07:31:48;99052.91;;;24.48;52.42
18569;BME280;14780;48.316;-1.050;2022-08-18T07:34:39;99057.00;;;24.45;52.82
18569;BME280;14780;48.316;-1.050;2022-08-18T07:37:39;99053.16;;;24.51;52.38
18569;BME280;14780;48.316;-1.050;2022-08-18T07:40:43;99057.00;;;24.50;52.55
18569;BME280;14780;48.316;-1.050;2022-08-18T07:43:35;99065.22;;;24.45;52.84
18569;BME280;14780;48.316;-1.050;2022-08-18T07:46:29;99062.22;;;24.47;52.91
18569;BME280;14780;48.316;-1.050;2022-08-18T07:49:20;99062.22;;;24.47;52.81
18569;BME280;14780;48.316;-1.050;2022-08-18T07:52:20;99061.38;;;24.46;52.91
18569;BME280;14780;48.316;-1.050;2022-08-18T07:55:33;99070.69;;;24.50;52.70
18569;BME280;14780;48.316;-1.050;2022-08-18T08:07:57;99091.47;;;24.51;53.08
18569;BME280;14780;48.316;-1.050;2022-08-18T08:11:02;99089.56;;;24.57;52.77
18569;BME280;14780;48.316;-1.050;2022-08-18T08:32:01;99084.84;;;24.77;52.90
18569;BME280;14780;48.316;-1.050;2022-08-18T08:34:48;99090.91;;;24.69;52.93
18569;BME280;14780;48.316;-1.050;2022-08-18T08:40:27;99088.72;;;24.71;53.05
18569;BME280;14780;48.316;-1.050;2022-08-18T08:43:25;99101.25;;;24.77;53.14
18569;BME280;14780;48.316;-1.050;2022-08-18T08:46:25;99099.06;;;24.84;52.88
18569;BME280;14780;48.316;-1.050;2022-08-18T08:49:35;99096.59;;;24.88;52.69
18569;BME280;14780;48.316;-1.050;2022-08-18T08:52:25;99094.16;;;24.81;52.91
18569;BME280;14780;48.316;-1.050;2022-08-18T08:55:23;99093.56;;;24.89;52.75
18569;BME280;14780;48.316;-1.050;2022-08-18T09:14:12;99092.47;;;24.95;52.73
18569;BME280;14780;48.316;-1.050;2022-08-18T09:17:30;99095.72;;;24.97;52.78
18569;BME280;14780;48.316;-1.050;2022-08-18T09:23:52;99085.88;;;25.01;52.71
18569;BME280;14780;48.316;-1.050;2022-08-18T09:29:58;99087.25;;;25.04;52.72
18569;BME280;14780;48.316;-1.050;2022-08-18T09:32:51;99094.91;;;25.02;52.66
18569;BME280;14780;48.316;-1.050;2022-08-18T09:38:45;99086.09;;;25.10;52.69
18569;BME280;14780;48.316;-1.050;2022-08-18T09:41:59;99094.03;;;25.11;52.59
18569;BME280;14780;48.316;-1.050;2022-08-18T09:53:30;99097.31;;;25.18;52.49
18569;BME280;14780;48.316;-1.050;2022-08-18T10:10:59;99105.47;;;25.33;52.44
18569;BME280;14780;48.316;-1.050;2022-08-18T10:20:19;99100.22;;;25.47;52.30
18569;BME280;14780;48.316;-1.050;2022-08-18T10:23:07;99095.81;;;25.46;52.20
18569;BME280;14780;48.316;-1.050;2022-08-18T10:25:52;99106.50;;;25.47;52.17
18569;BME280;14780;48.316;-1.050;2022-08-18T10:28:54;99107.53;;;25.56;52.38
18569;BME280;14780;48.316;-1.050;2022-08-18T10:34:49;99116.00;;;25.60;51.98
18569;BME280;14780;48.316;-1.050;2022-08-18T10:37:41;99114.38;;;25.59;51.94
18569;BME280;14780;48.316;-1.050;2022-08-18T10:40:26;99115.72;;;25.61;51.97
18569;BME280;14780;48.316;-1.050;2022-08-18T10:43:21;99114.59;;;25.67;51.96
18569;BME280;14780;48.316;-1.050;2022-08-18T10:46:23;99106.38;;;25.67;51.99
18569;BME280;14780;48.316;-1.050;2022-08-18T10:52:09;99117.31;;;25.72;51.57
18569;BME280;14780;48.316;-1.050;2022-08-18T10:55:14;99116.47;;;25.77;51.72
18569;BME280;14780;48.316;-1.050;2022-08-18T11:01:25;99113.47;;;25.73;51.45
18569;BME280;14780;48.316;-1.050;2022-08-18T11:07:12;99115.13;;;25.74;51.43
18569;BME280;14780;48.316;-1.050;2022-08-18T11:09:59;99126.31;;;25.78;51.56
18569;BME280;14780;48.316;-1.050;2022-08-18T11:16:11;99109.53;;;25.94;51.25
18569;BME280;14780;48.316;-1.050;2022-08-18T11:19:13;99110.06;;;25.96;51.20
18569;BME280;14780;48.316;-1.050;2022-08-18T11:21:59;99103.78;;;25.86;51.20
18569;BME280;14780;48.316;-1.050;2022-08-18T11:24:45;99102.97;;;25.85;51.06
18569;BME280;14780;48.316;-1.050;2022-08-18T11:27:33;99102.97;;;25.85;51.16
18569;BME280;14780;48.316;-1.050;2022-08-18T11:30:24;99086.00;;;25.88;51.05
18569;BME280;14780;48.316;-1.050;2022-08-18T11:33:15;99098.00;;;25.92;50.86
18569;BME280;14780;48.316;-1.050;2022-08-18T11:36:00;99090.09;;;25.91;50.96
18569;BME280;14780;48.316;-1.050;2022-08-18T11:38:55;99104.53;;;26.01;50.93
18569;BME280;14780;48.316;-1.050;2022-08-18T11:41:45;99102.06;;;26.05;50.61
18569;BME280;14780;48.316;-1.050;2022-08-18T11:44:35;99095.41;;;26.11;50.62
18569;BME280;14780;48.316;-1.050;2022-08-18T11:47:22;99104.72;;;26.10;50.37
18569;BME280;14780;48.316;-1.050;2022-08-18T11:50:12;99106.66;;;26.09;50.39
18569;BME280;14780;48.316;-1.050;2022-08-18T11:53:11;99105.88;;;26.04;50.39
18569;BME280;14780;48.316;-1.050;2022-08-18T12:02:08;99102.53;;;26.12;50.44
18569;BME280;14780;48.316;-1.050;2022-08-18T12:04:58;99099.97;;;26.20;50.31
18569;BME280;14780;48.316;-1.050;2022-08-18T12:07:46;99101.53;;;26.31;50.12
18569;BME280;14780;48.316;-1.050;2022-08-18T12:10:31;99100.16;;;26.34;49.95
18569;BME280;14780;48.316;-1.050;2022-08-18T12:13:23;99112.19;;;26.38;50.02
18569;BME280;14780;48.316;-1.050;2022-08-18T12:16:41;99109.69;;;26.41;50.06
18569;BME280;14780;48.316;-1.050;2022-08-18T12:19:26;99107.84;;;26.32;49.98
18569;BME280;14780;48.316;-1.050;2022-08-18T12:22:18;99110.50;;;26.42;49.78
18569;BME280;14780;48.316;-1.050;2022-08-18T12:25:05;99117.88;;;26.46;49.61
18569;BME280;14780;48.316;-1.050;2022-08-18T12:27:52;99125.59;;;26.44;49.72
18569;BME280;14780;48.316;-1.050;2022-08-18T12:30:36;99123.88;;;26.48;49.51
18569;BME280;14780;48.316;-1.050;2022-08-18T12:33:21;99127.97;;;26.51;49.44
18569;BME280;14780;48.316;-1.050;2022-08-18T12:36:06;99128.00;;;26.46;49.30
18569;BME280;14780;48.316;-1.050;2022-08-18T12:38:51;99128.81;;;26.51;49.51
18569;BME280;14780;48.316;-1.050;2022-08-18T12:41:36;99125.72;;;26.63;49.21
18569;BME280;14780;48.316;-1.050;2022-08-18T12:44:21;99129.44;;;26.72;49.11
18569;BME280;14780;48.316;-1.050;2022-08-18T12:47:11;99136.53;;;26.78;48.75
18569;BME280;14780;48.316;-1.050;2022-08-18T12:49:56;99147.16;;;26.84;48.83
18569;BME280;14780;48.316;-1.050;2022-08-18T12:52:41;99143.84;;;26.87;48.79
18569;BME280;14780;48.316;-1.050;2022-08-18T12:55:27;99147.03;;;26.94;48.65
18569;BME280;14780;48.316;-1.050;2022-08-18T12:58:14;99147.22;;;27.03;48.55
18569;BME280;14780;48.316;-1.050;2022-08-18T13:01:00;99152.06;;;27.11;48.08
18569;BME280;14780;48.316;-1.050;2022-08-18T13:03:48;99153.69;;;27.17;48.01
18569;BME280;14780;48.316;-1.050;2022-08-18T13:06:36;99145.16;;;27.18;48.05
18569;BME280;14780;48.316;-1.050;2022-08-18T13:09:23;99145.63;;;27.25;47.75
18569;BME280;14780;48.316;-1.050;2022-08-18T13:12:08;99147.97;;;27.37;47.63
18569;BME280;14780;48.316;-1.050;2022-08-18T13:14:53;99153.88;;;27.49;47.53
18569;BME280;14780;48.316;-1.050;2022-08-18T13:17:38;99163.19;;;27.48;47.20
18569;BME280;14780;48.316;-1.050;2022-08-18T13:20:23;99163.75;;;27.50;47.15
18569;BME280;14780;48.316;-1.050;2022-08-18T13:23:08;99160.69;;;27.51;47.14
18569;BME280;14780;48.316;-1.050;2022-08-18T13:25:55;99158.94;;;27.60;46.97
18569;BME280;14780;48.316;-1.050;2022-08-18T13:28:41;99155.75;;;27.72;46.84
18569;BME280;14780;48.316;-1.050;2022-08-18T13:31:26;99144.13;;;27.80;46.73
18569;BME280;14780;48.316;-1.050;2022-08-18T13:34:11;99145.09;;;27.89;46.59
18569;BME280;14780;48.316;-1.050;2022-08-18T13:36:57;99146.59;;;28.00;46.13
18569;BME280;14780;48.316;-1.050;2022-08-18T13:39:42;99148.34;;;28.09;45.88
18569;BME280;14780;48.316;-1.050;2022-08-18T13:42:27;99147.06;;;28.20;45.65
18569;BME280;14780;48.316;-1.050;2022-08-18T13:45:13;99138.53;;;28.22;45.45
18569;BME280;14780;48.316;-1.050;2022-08-18T13:47:58;99143.41;;;28.25;45.48
18569;BME280;14780;48.316;-1.050;2022-08-18T13:50:43;99132.81;;;28.37;45.37
18569;BME280;14780;48.316;-1.050;2022-08-18T13:53:29;99140.09;;;28.46;44.93
18569;BME280;14780;48.316;-1.050;2022-08-18T13:56:14;99142.91;;;28.41;44.82
18569;BME280;14780;48.316;-1.050;2022-08-18T13:58:59;99145.03;;;28.44;44.92
18569;BME280;14780;48.316;-1.050;2022-08-18T14:01:44;99149.59;;;28.67;44.53
18569;BME280;14780;48.316;-1.050;2022-08-18T14:04:29;99143.50;;;28.83;44.15
18569;BME280;14780;48.316;-1.050;2022-08-18T14:07:15;99156.69;;;28.87;43.94
18569;BME280;14780;48.316;-1.050;2022-08-18T14:10:03;99158.63;;;28.86;43.98
18569;BME280;14780;48.316;-1.050;2022-08-18T14:12:49;99151.78;;;28.83;43.73
18569;BME280;14780;48.316;-1.050;2022-08-18T14:15:35;99144.94;;;28.81;44.01
18569;BME280;14780;48.316;-1.050;2022-08-18T14:18:22;99141.59;;;28.84;43.73
18569;BME280;14780;48.316;-1.050;2022-08-18T14:21:08;99139.25;;;28.91;43.84
18569;BME280;14780;48.316;-1.050;2022-08-18T14:24:11;99148.56;;;28.95;43.54
18569;BME280;14780;48.316;-1.050;2022-08-18T14:27:19;99140.88;;;28.92;43.54
18569;BME280;14780;48.316;-1.050;2022-08-18T14:30:10;99147.53;;;28.91;43.67
18569;BME280;14780;48.316;-1.050;2022-08-18T14:32:56;99137.91;;;28.88;43.37
18569;BME280;14780;48.316;-1.050;2022-08-18T14:35:41;99146.47;;;28.74;43.52
18569;BME280;14780;48.316;-1.050;2022-08-18T14:38:26;99141.13;;;28.96;43.75
18569;BME280;14780;48.316;-1.050;2022-08-18T14:41:12;99153.38;;;29.16;43.22
18569;BME280;14780;48.316;-1.050;2022-08-18T14:43:58;99139.59;;;29.30;43.12
18569;BME280;14780;48.316;-1.050;2022-08-18T14:46:44;99141.84;;;29.68;42.80
18569;BME280;14780;48.316;-1.050;2022-08-18T14:49:30;99135.38;;;30.22;41.83
18569;BME280;14780;48.316;-1.050;2022-08-18T14:52:15;99138.03;;;30.71;41.10
18569;BME280;14780;48.316;-1.050;2022-08-18T14:54:59;99140.09;;;30.96;40.17
18569;BME280;14780;48.316;-1.050;2022-08-18T14:57:44;99139.84;;;31.06;39.81
18569;BME280;14780;48.316;-1.050;2022-08-18T15:00:30;99156.88;;;31.30;39.09
18569;BME280;14780;48.316;-1.050;2022-08-18T15:03:15;99160.22;;;31.66;39.10
18569;BME280;14780;48.316;-1.050;2022-08-18T15:06:02;99153.31;;;31.38;38.42
18569;BME280;14780;48.316;-1.050;2022-08-18T15:08:47;99152.97;;;31.31;39.06
18569;BME280;14780;48.316;-1.050;2022-08-18T15:11:32;99157.09;;;31.42;39.00
18569;BME280;14780;48.316;-1.050;2022-08-18T15:14:17;99146.47;;;31.05;38.58
18569;BME280;14780;48.316;-1.050;2022-08-18T15:17:04;99155.19;;;30.46;39.12
18569;BME280;14780;48.316;-1.050;2022-08-18T15:19:50;99164.44;;;30.06;39.73
18569;BME280;14780;48.316;-1.050;2022-08-18T15:22:39;99169.75;;;30.02;40.12
18569;BME280;14780;48.316;-1.050;2022-08-18T15:25:45;99171.00;;;30.54;39.89
18569;BME280;14780;48.316;-1.050;2022-08-18T15:28:30;99171.06;;;30.40;39.51
18569;BME280;14780;48.316;-1.050;2022-08-18T15:31:16;99168.78;;;30.56;40.15
18569;BME280;14780;48.316;-1.050;2022-08-18T15:34:01;99173.69;;;31.42;39.19
18569;BME280;14780;48.316;-1.050;2022-08-18T15:36:46;99178.84;;;31.91;37.81
18569;BME280;14780;48.316;-1.050;2022-08-18T15:39:30;99178.88;;;32.93;37.47
18569;BME280;14780;48.316;-1.050;2022-08-18T15:42:15;99173.22;;;32.64;37.04
18569;BME280;14780;48.316;-1.050;2022-08-18T15:45:00;99171.41;;;32.17;37.39
18569;BME280;14780;48.316;-1.050;2022-08-18T15:47:47;99163.47;;;31.68;37.52
18569;BME280;14780;48.316;-1.050;2022-08-18T15:50:32;99168.75;;;31.78;38.22
18569;BME280;14780;48.316;-1.050;2022-08-18T15:53:19;99168.81;;;32.46;37.74
18569;BME280;14780;48.316;-1.050;2022-08-18T15:56:04;99169.13;;;32.53;37.46
18569;BME280;14780;48.316;-1.050;2022-08-18T15:58:49;99174.78;;;33.45;36.63
18569;BME280;14780;48.316;-1.050;2022-08-18T16:01:35;99182.63;;;34.30;35.41
18569;BME280;14780;48.316;-1.050;2022-08-18T16:04:20;99186.97;;;35.04;34.97
18569;BME280;14780;48.316;-1.050;2022-08-18T16:07:05;99183.03;;;35.37;33.89
18569;BME280;14780;48.316;-1.050;2022-08-18T16:09:50;99180.72;;;35.39;33.83
18569;BME280;14780;48.316;-1.050;2022-08-18T16:12:35;99187.25;;;34.79;33.53
18569;BME280;14780;48.316;-1.050;2022-08-18T16:15:22;99170.72;;;33.42;34.49
18569;BME280;14780;48.316;-1.050;2022-08-18T16:18:08;99166.53;;;32.48;35.52
18569;BME280;14780;48.316;-1.050;2022-08-18T16:20:53;99166.97;;;31.82;36.28
18569;BME280;14780;48.316;-1.050;2022-08-18T16:23:41;99164.03;;;31.31;36.84
18569;BME280;14780;48.316;-1.050;2022-08-18T16:26:27;99172.88;;;30.89;37.43
18569;BME280;14780;48.316;-1.050;2022-08-18T16:29:12;99164.88;;;30.57;37.79
18569;BME280;14780;48.316;-1.050;2022-08-18T16:31:56;99170.69;;;30.33;38.14
18569;BME280;14780;48.316;-1.050;2022-08-18T16:34:41;99167.63;;;30.13;38.30
18569;BME280;14780;48.316;-1.050;2022-08-18T16:37:26;99169.38;;;29.95;38.55
18569;BME280;14780;48.316;-1.050;2022-08-18T16:40:11;99172.66;;;29.84;38.82
18569;BME280;14780;48.316;-1.050;2022-08-18T16:42:57;99173.50;;;29.71;38.99
18569;BME280;14780;48.316;-1.050;2022-08-18T16:45:44;99179.25;;;29.61;39.12
18569;BME280;14780;48.316;-1.050;2022-08-18T16:48:31;99172.69;;;29.57;39.43